sensor_id;sensor_type;location;lat;lon;timestamp;temperature;humidity
15288;DHT22;7745;48.708;9.026;2023-09-30T00:01:56;16.00;99.90
15288;DHT22;7745;48.708;9.026;2023-09-30T00:04:22;16.00;99.90
15288;DHT22;7745;48.708;9.026;2023-09-30T00:06:50;15.90;99.90
15288;DHT22;7745;48.708;9.026;2023-09-30T00:09:17;15.90;99.90
15288;DHT22;7745;48.708;9.026;2023-09-30T00:11:44;15.90;99.90
15288;DHT22;7745;48.708;9.026;2023-09-30T00:14:11;15.80;99.90
15288;DHT22;7745;48.708;9.026;2023-09-30T00:16:38;15.70;99.90
15288;DHT22;7745;48.708;9.026;2023-09-30T00:19:04;15.70;99.90
15288;DHT22;7745;48.708;9.026;2023-09-30T00:21:31;15.60;99.90
15288;DHT22;7745;48.708;9.026;2023-09-30T00:23:59;15.60;99.90
15288;DHT22;7745;48.708;9.026;2023-09-30T00:26:26;15.60;99.90
15288;DHT22;7745;48.708;9.026;2023-09-30T00:28:53;15.70;99.90
15288;DHT22;7745;48.708;9.026;2023-09-30T00:31:19;15.70;99.90
15288;DHT22;7745;48.708;9.026;2023-09-30T00:33:46;15.70;99.90
15288;DHT22;7745;48.708;9.026;2023-09-30T00:36:13;15.70;99.90
15288;DHT22;7745;48.708;9.026;2023-09-30T00:38:40;15.70;99.90
15288;DHT22;7745;48.708;9.026;2023-09-30T00:41:08;15.70;99.90
15288;DHT22;7745;48.708;9.026;2023-09-30T00:43:35;15.70;99.90
15288;DHT22;7745;48.708;9.026;2023-09-30T00:46:06;15.70;99.90
15288;DHT22;7745;48.708;9.026;2023-09-30T00:48:37;15.60;99.90
15288;DHT22;7745;48.708;9.026;2023-09-30T00:51:05;15.60;99.90
15288;DHT22;7745;48.708;9.026;2023-09-30T00:53:32;15.60;99.90
15288;DHT22;7745;48.708;9.026;2023-09-30T00:55:59;15.50;99.90
15288;DHT22;7745;48.708;9.026;2023-09-30T00:58:28;15.50;99.90
15288;DHT22;7745;48.708;9.026;2023-09-30T01:00:56;15.50;99.90
15288;DHT22;7745;48.708;9.026;2023-09-30T01:03:25;15.50;99.90
15288;DHT22;7745;48.708;9.026;2023-09-30T01:05:51;15.50;99.90
15288;DHT22;7745;48.708;9.026;2023-09-30T01:08:19;15.40;99.90
15288;DHT22;7745;48.708;9.026;2023-09-30T01:10:46;15.50;99.90
15288;DHT22;7745;48.708;9.026;2023-09-30T01:13:13;15.50;99.90
15288;DHT22;7745;48.708;9.026;2023-09-30T01:15:41;15.60;99.90
15288;DHT22;7745;48.708;9.026;2023-09-30T01:18:08;15.60;99.90
15288;DHT22;7745;48.708;9.026;2023-09-30T01:20:35;15.60;99.90
15288;DHT22;7745;48.708;9.026;2023-09-30T01:23:03;15.60;99.90
15288;DHT22;7745;48.708;9.026;2023-09-30T01:25:30;15.60;99.90
15288;DHT22;7745;48.708;9.026;2023-09-30T01:27:58;15.70;99.90
15288;DHT22;7745;48.708;9.026;2023-09-30T01:30:31;15.60;99.90
15288;DHT22;7745;48.708;9.026;2023-09-30T01:32:58;15.60;99.90
15288;DHT22;7745;48.708;9.026;2023-09-30T01:35:25;15.60;99.90
15288;DHT22;7745;48.708;9.026;2023-09-30T01:37:52;15.60;99.90
15288;DHT22;7745;48.708;9.026;2023-09-30T01:40:21;15.60;99.90
15288;DHT22;7745;48.708;9.026;2023-09-30T01:42:47;15.50;99.90
15288;DHT22;7745;48.708;9.026;2023-09-30T01:45:14;15.50;99.90
15288;DHT22;7745;48.708;9.026;2023-09-30T01:47:41;15.40;99.90
15288;DHT22;7745;48.708;9.026;2023-09-30T01:50:08;15.30;99.90
15288;DHT22;7745;48.708;9.026;2023-09-30T01:52:35;15.10;99.90
15288;DHT22;7745;48.708;9.026;2023-09-30T01:55:02;15.10;99.90
15288;DHT22;7745;48.708;9.026;2023-09-30T01:57:31;15.00;99.90
15288;DHT22;7745;48.708;9.026;2023-09-30T01:59:57;15.00;99.90
15288;DHT22;7745;48.708;9.026;2023-09-30T02:02:24;14.90;99.90
15288;DHT22;7745;48.708;9.026;2023-09-30T02:04:51;14.90;99.90
15288;DHT22;7745;48.708;9.026;2023-09-30T02:07:19;14.80;99.90
15288;DHT22;7745;48.708;9.026;2023-09-30T02:09:45;14.80;99.90
15288;DHT22;7745;48.708;9.026;2023-09-30T02:12:12;14.90;99.90
15288;DHT22;7745;48.708;9.026;2023-09-30T02:14:40;14.90;99.90
15288;DHT22;7745;48.708;9.026;2023-09-30T02:17:07;14.90;99.90
15288;DHT22;7745;48.708;9.026;2023-09-30T02:19:35;14.90;99.90
15288;DHT22;7745;48.708;9.026;2023-09-30T02:22:02;14.80;99.90
15288;DHT22;7745;48.708;9.026;2023-09-30T02:24:30;14.80;99.90
15288;DHT22;7745;48.708;9.026;2023-09-30T02:26:57;14.80;99.90
15288;DHT22;7745;48.708;9.026;2023-09-30T02:29:23;14.80;99.90
15288;DHT22;7745;48.708;9.026;2023-09-30T02:31:52;14.90;99.90
15288;DHT22;7745;48.708;9.026;2023-09-30T02:34:20;14.90;99.90
15288;DHT22;7745;48.708;9.026;2023-09-30T02:36:47;14.90;99.90
15288;DHT22;7745;48.708;9.026;2023-09-30T02:39:14;15.00;99.90
15288;DHT22;7745;48.708;9.026;2023-09-30T02:41:42;14.90;99.90
15288;DHT22;7745;48.708;9.026;2023-09-30T02:44:09;14.90;99.90
15288;DHT22;7745;48.708;9.026;2023-09-30T02:46:36;14.90;99.90
15288;DHT22;7745;48.708;9.026;2023-09-30T02:49:04;14.90;99.90
15288;DHT22;7745;48.708;9.026;2023-09-30T02:51:31;14.90;99.90
15288;DHT22;7745;48.708;9.026;2023-09-30T02:53:58;14.90;99.90
15288;DHT22;7745;48.708;9.026;2023-09-30T02:56:24;14.90;99.90
15288;DHT22;7745;48.708;9.026;2023-09-30T02:58:52;14.90;99.90
15288;DHT22;7745;48.708;9.026;2023-09-30T03:01:19;14.90;99.90
15288;DHT22;7745;48.708;9.026;2023-09-30T03:03:46;14.90;99.90
15288;DHT22;7745;48.708;9.026;2023-09-30T03:06:14;14.90;99.90
15288;DHT22;7745;48.708;9.026;2023-09-30T03:08:41;14.90;99.90
15288;DHT22;7745;48.708;9.026;2023-09-30T03:11:07;15.00;99.90
15288;DHT22;7745;48.708;9.026;2023-09-30T03:13:34;14.90;99.90
15288;DHT22;7745;48.708;9.026;2023-09-30T03:16:01;14.90;99.90
15288;DHT22;7745;48.708;9.026;2023-09-30T03:18:28;14.90;99.90
15288;DHT22;7745;48.708;9.026;2023-09-30T03:21:00;14.90;99.90
15288;DHT22;7745;48.708;9.026;2023-09-30T03:23:28;14.80;99.90
15288;DHT22;7745;48.708;9.026;2023-09-30T03:25:56;14.70;99.90
15288;DHT22;7745;48.708;9.026;2023-09-30T03:28:23;14.70;99.90
15288;DHT22;7745;48.708;9.026;2023-09-30T03:30:50;14.70;99.90
15288;DHT22;7745;48.708;9.026;2023-09-30T03:33:17;14.70;99.90
15288;DHT22;7745;48.708;9.026;2023-09-30T03:35:43;14.70;99.90
15288;DHT22;7745;48.708;9.026;2023-09-30T03:38:10;14.70;99.90
15288;DHT22;7745;48.708;9.026;2023-09-30T03:40:39;14.70;99.90
15288;DHT22;7745;48.708;9.026;2023-09-30T03:43:13;14.70;99.90
15288;DHT22;7745;48.708;9.026;2023-09-30T03:45:39;14.70;99.90
15288;DHT22;7745;48.708;9.026;2023-09-30T03:48:06;14.70;99.90
15288;DHT22;7745;48.708;9.026;2023-09-30T03:50:35;14.70;99.90
15288;DHT22;7745;48.708;9.026;2023-09-30T03:53:04;14.70;99.90
15288;DHT22;7745;48.708;9.026;2023-09-30T03:55:32;14.70;99.90
15288;DHT22;7745;48.708;9.026;2023-09-30T03:58:00;14.70;99.90
15288;DHT22;7745;48.708;9.026;2023-09-30T04:00:28;14.80;99.90
15288;DHT22;7745;48.708;9.026;2023-09-30T04:02:55;14.80;99.90
15288;DHT22;7745;48.708;9.026;2023-09-30T04:05:24;14.80;99.90
15288;DHT22;7745;48.708;9.026;2023-09-30T04:07:55;14.70;99.90
15288;DHT22;7745;48.708;9.026;2023-09-30T04:10:22;14.70;99.90
15288;DHT22;7745;48.708;9.026;2023-09-30T04:12:49;14.70;99.90
15288;DHT22;7745;48.708;9.026;2023-09-30T04:15:17;14.80;99.90
15288;DHT22;7745;48.708;9.026;2023-09-30T04:17:44;14.80;99.90
15288;DHT22;7745;48.708;9.026;2023-09-30T04:20:11;14.80;99.90
15288;DHT22;7745;48.708;9.026;2023-09-30T04:22:44;14.70;99.90
15288;DHT22;7745;48.708;9.026;2023-09-30T04:25:14;14.80;99.90
15288;DHT22;7745;48.708;9.026;2023-09-30T04:27:42;14.80;99.90
15288;DHT22;7745;48.708;9.026;2023-09-30T04:30:10;14.80;99.90
15288;DHT22;7745;48.708;9.026;2023-09-30T04:32:38;14.80;99.90
15288;DHT22;7745;48.708;9.026;2023-09-30T04:35:05;14.70;99.90
15288;DHT22;7745;48.708;9.026;2023-09-30T04:37:33;14.70;99.90
15288;DHT22;7745;48.708;9.026;2023-09-30T04:40:03;14.70;99.90
15288;DHT22;7745;48.708;9.026;2023-09-30T04:42:33;14.70;99.90
15288;DHT22;7745;48.708;9.026;2023-09-30T04:45:02;14.70;99.90
15288;DHT22;7745;48.708;9.026;2023-09-30T04:47:30;14.70;99.90
15288;DHT22;7745;48.708;9.026;2023-09-30T04:49:59;14.70;99.90
15288;DHT22;7745;48.708;9.026;2023-09-30T04:52:30;14.70;99.90
15288;DHT22;7745;48.708;9.026;2023-09-30T04:54:57;14.70;99.90
15288;DHT22;7745;48.708;9.026;2023-09-30T04:57:25;14.70;99.90
15288;DHT22;7745;48.708;9.026;2023-09-30T04:59:52;14.70;99.90
15288;DHT22;7745;48.708;9.026;2023-09-30T05:02:19;14.90;99.90
15288;DHT22;7745;48.708;9.026;2023-09-30T05:04:46;14.60;99.90
15288;DHT22;7745;48.708;9.026;2023-09-30T05:07:14;14.60;99.90
15288;DHT22;7745;48.708;9.026;2023-09-30T05:09:40;14.60;99.90
15288;DHT22;7745;48.708;9.026;2023-09-30T05:12:08;14.60;99.90
15288;DHT22;7745;48.708;9.026;2023-09-30T05:14:35;14.70;99.90
15288;DHT22;7745;48.708;9.026;2023-09-30T05:17:03;14.70;99.90
15288;DHT22;7745;48.708;9.026;2023-09-30T05:19:30;14.70;99.90
15288;DHT22;7745;48.708;9.026;2023-09-30T05:21:58;14.70;99.90
15288;DHT22;7745;48.708;9.026;2023-09-30T05:24:28;14.70;99.90
15288;DHT22;7745;48.708;9.026;2023-09-30T05:26:55;14.70;99.90
15288;DHT22;7745;48.708;9.026;2023-09-30T05:29:22;14.60;99.90
15288;DHT22;7745;48.708;9.026;2023-09-30T05:31:49;14.60;99.90
15288;DHT22;7745;48.708;9.026;2023-09-30T05:34:15;14.60;99.90
15288;DHT22;7745;48.708;9.026;2023-09-30T05:36:42;14.60;99.90
15288;DHT22;7745;48.708;9.026;2023-09-30T05:39:09;14.50;99.90
15288;DHT22;7745;48.708;9.026;2023-09-30T05:41:38;14.50;99.90
15288;DHT22;7745;48.708;9.026;2023-09-30T05:44:05;14.50;99.90
15288;DHT22;7745;48.708;9.026;2023-09-30T05:46:33;14.40;99.90
15288;DHT22;7745;48.708;9.026;2023-09-30T05:48:59;14.40;99.90
15288;DHT22;7745;48.708;9.026;2023-09-30T05:51:27;14.40;99.90
15288;DHT22;7745;48.708;9.026;2023-09-30T05:53:54;14.50;99.90
15288;DHT22;7745;48.708;9.026;2023-09-30T05:56:21;14.50;99.90
15288;DHT22;7745;48.708;9.026;2023-09-30T05:58:49;14.50;99.90
15288;DHT22;7745;48.708;9.026;2023-09-30T06:01:16;14.60;99.90
15288;DHT22;7745;48.708;9.026;2023-09-30T06:03:45;14.60;99.90
15288;DHT22;7745;48.708;9.026;2023-09-30T06:06:12;14.60;99.90
15288;DHT22;7745;48.708;9.026;2023-09-30T06:08:39;14.50;99.90
15288;DHT22;7745;48.708;9.026;2023-09-30T06:11:06;14.60;99.90
15288;DHT22;7745;48.708;9.026;2023-09-30T06:13:33;14.60;99.90
15288;DHT22;7745;48.708;9.026;2023-09-30T06:16:01;14.60;99.90
15288;DHT22;7745;48.708;9.026;2023-09-30T06:18:28;14.60;99.90
15288;DHT22;7745;48.708;9.026;2023-09-30T06:20:55;14.60;99.90
15288;DHT22;7745;48.708;9.026;2023-09-30T06:23:23;14.70;99.90
15288;DHT22;7745;48.708;9.026;2023-09-30T06:25:50;14.70;99.90
15288;DHT22;7745;48.708;9.026;2023-09-30T06:28:17;14.70;99.90
15288;DHT22;7745;48.708;9.026;2023-09-30T06:30:43;14.70;99.90
15288;DHT22;7745;48.708;9.026;2023-09-30T06:33:13;14.80;99.90
15288;DHT22;7745;48.708;9.026;2023-09-30T06:35:41;14.80;99.90
15288;DHT22;7745;48.708;9.026;2023-09-30T06:38:16;14.90;99.90
15288;DHT22;7745;48.708;9.026;2023-09-30T06:40:44;14.90;99.90
15288;DHT22;7745;48.708;9.026;2023-09-30T06:43:12;14.80;99.90
15288;DHT22;7745;48.708;9.026;2023-09-30T06:45:41;14.90;99.90
15288;DHT22;7745;48.708;9.026;2023-09-30T06:51:18;14.90;99.90
15288;DHT22;7745;48.708;9.026;2023-09-30T06:53:45;15.10;99.90
15288;DHT22;7745;48.708;9.026;2023-09-30T06:56:12;15.10;99.90
15288;DHT22;7745;48.708;9.026;2023-09-30T06:58:39;15.20;99.90
15288;DHT22;7745;48.708;9.026;2023-09-30T07:01:06;15.30;99.90
15288;DHT22;7745;48.708;9.026;2023-09-30T07:03:32;15.40;99.90
15288;DHT22;7745;48.708;9.026;2023-09-30T07:05:59;15.40;99.90
15288;DHT22;7745;48.708;9.026;2023-09-30T07:08:28;15.50;99.90
15288;DHT22;7745;48.708;9.026;2023-09-30T07:10:56;15.40;99.90
15288;DHT22;7745;48.708;9.026;2023-09-30T07:13:23;15.40;99.90
15288;DHT22;7745;48.708;9.026;2023-09-30T07:15:49;15.50;99.90
15288;DHT22;7745;48.708;9.026;2023-09-30T07:18:17;15.80;99.90
15288;DHT22;7745;48.708;9.026;2023-09-30T07:20:43;15.60;99.90
15288;DHT22;7745;48.708;9.026;2023-09-30T07:23:10;15.70;99.90
15288;DHT22;7745;48.708;9.026;2023-09-30T07:25:40;15.80;99.90
15288;DHT22;7745;48.708;9.026;2023-09-30T07:28:06;15.80;99.90
15288;DHT22;7745;48.708;9.026;2023-09-30T07:30:37;15.90;99.90
15288;DHT22;7745;48.708;9.026;2023-09-30T07:33:04;15.90;99.90
15288;DHT22;7745;48.708;9.026;2023-09-30T07:35:31;15.80;99.90
15288;DHT22;7745;48.708;9.026;2023-09-30T07:37:58;15.90;99.90
15288;DHT22;7745;48.708;9.026;2023-09-30T07:40:24;15.90;99.90
15288;DHT22;7745;48.708;9.026;2023-09-30T07:42:53;15.90;99.90
15288;DHT22;7745;48.708;9.026;2023-09-30T07:45:20;16.00;99.90
15288;DHT22;7745;48.708;9.026;2023-09-30T07:47:47;15.90;99.90
15288;DHT22;7745;48.708;9.026;2023-09-30T07:50:14;16.00;99.90
15288;DHT22;7745;48.708;9.026;2023-09-30T07:52:41;16.00;99.90
15288;DHT22;7745;48.708;9.026;2023-09-30T07:55:09;16.10;99.90
15288;DHT22;7745;48.708;9.026;2023-09-30T07:57:36;16.00;99.90
15288;DHT22;7745;48.708;9.026;2023-09-30T08:00:06;15.90;99.90
15288;DHT22;7745;48.708;9.026;2023-09-30T08:02:40;16.00;99.90
15288;DHT22;7745;48.708;9.026;2023-09-30T08:05:08;16.10;99.90
15288;DHT22;7745;48.708;9.026;2023-09-30T08:07:35;16.10;99.90
15288;DHT22;7745;48.708;9.026;2023-09-30T08:10:02;16.20;99.90
15288;DHT22;7745;48.708;9.026;2023-09-30T08:12:30;16.40;99.90
15288;DHT22;7745;48.708;9.026;2023-09-30T08:14:57;16.60;99.90
15288;DHT22;7745;48.708;9.026;2023-09-30T08:17:25;16.80;99.90
15288;DHT22;7745;48.708;9.026;2023-09-30T08:19:52;16.90;99.90
15288;DHT22;7745;48.708;9.026;2023-09-30T08:22:19;17.00;99.90
15288;DHT22;7745;48.708;9.026;2023-09-30T08:24:46;17.30;99.90
15288;DHT22;7745;48.708;9.026;2023-09-30T08:27:13;17.30;99.90
15288;DHT22;7745;48.708;9.026;2023-09-30T08:29:40;17.30;99.90
15288;DHT22;7745;48.708;9.026;2023-09-30T08:32:07;17.30;99.90
15288;DHT22;7745;48.708;9.026;2023-09-30T08:34:35;17.40;99.90
15288;DHT22;7745;48.708;9.026;2023-09-30T08:37:02;17.50;99.90
15288;DHT22;7745;48.708;9.026;2023-09-30T08:39:29;17.50;99.90
15288;DHT22;7745;48.708;9.026;2023-09-30T08:41:56;17.70;99.90
15288;DHT22;7745;48.708;9.026;2023-09-30T08:44:23;17.70;99.90
15288;DHT22;7745;48.708;9.026;2023-09-30T08:46:52;17.80;99.90
15288;DHT22;7745;48.708;9.026;2023-09-30T08:49:20;17.80;99.90
15288;DHT22;7745;48.708;9.026;2023-09-30T08:51:53;17.80;99.90
15288;DHT22;7745;48.708;9.026;2023-09-30T08:54:22;17.80;99.90
15288;DHT22;7745;48.708;9.026;2023-09-30T08:56:49;17.80;99.90
15288;DHT22;7745;48.708;9.026;2023-09-30T08:59:16;17.70;99.90
15288;DHT22;7745;48.708;9.026;2023-09-30T09:01:43;17.70;99.90
15288;DHT22;7745;48.708;9.026;2023-09-30T09:04:10;17.70;99.90
15288;DHT22;7745;48.708;9.026;2023-09-30T09:06:37;17.60;99.90
15288;DHT22;7745;48.708;9.026;2023-09-30T09:09:14;17.60;99.90
15288;DHT22;7745;48.708;9.026;2023-09-30T09:11:42;17.70;99.90
15288;DHT22;7745;48.708;9.026;2023-09-30T09:14:09;17.70;99.90
15288;DHT22;7745;48.708;9.026;2023-09-30T09:16:36;17.70;99.90
15288;DHT22;7745;48.708;9.026;2023-09-30T09:19:13;17.70;99.90
15288;DHT22;7745;48.708;9.026;2023-09-30T09:21:53;17.80;99.90
15288;DHT22;7745;48.708;9.026;2023-09-30T09:24:29;17.80;99.90
15288;DHT22;7745;48.708;9.026;2023-09-30T09:27:04;17.90;99.90
15288;DHT22;7745;48.708;9.026;2023-09-30T09:29:32;18.00;99.90
15288;DHT22;7745;48.708;9.026;2023-09-30T09:32:14;18.20;99.90
15288;DHT22;7745;48.708;9.026;2023-09-30T09:34:42;18.50;99.90
15288;DHT22;7745;48.708;9.026;2023-09-30T09:37:14;18.50;99.90
15288;DHT22;7745;48.708;9.026;2023-09-30T09:39:51;18.40;99.90
15288;DHT22;7745;48.708;9.026;2023-09-30T09:42:26;18.50;99.90
15288;DHT22;7745;48.708;9.026;2023-09-30T09:44:56;18.50;99.90
15288;DHT22;7745;48.708;9.026;2023-09-30T09:47:23;18.40;99.90
15288;DHT22;7745;48.708;9.026;2023-09-30T09:49:51;18.30;99.90
15288;DHT22;7745;48.708;9.026;2023-09-30T09:52:19;18.40;99.90
15288;DHT22;7745;48.708;9.026;2023-09-30T09:54:47;18.30;99.90
15288;DHT22;7745;48.708;9.026;2023-09-30T09:57:16;18.40;99.90
15288;DHT22;7745;48.708;9.026;2023-09-30T09:59:43;18.60;99.90
15288;DHT22;7745;48.708;9.026;2023-09-30T10:02:13;18.60;99.90
15288;DHT22;7745;48.708;9.026;2023-09-30T10:04:41;18.60;99.90
15288;DHT22;7745;48.708;9.026;2023-09-30T10:07:10;18.60;99.90
15288;DHT22;7745;48.708;9.026;2023-09-30T10:09:41;18.70;99.90
15288;DHT22;7745;48.708;9.026;2023-09-30T10:12:12;18.80;99.90
15288;DHT22;7745;48.708;9.026;2023-09-30T10:14:40;18.60;99.90
15288;DHT22;7745;48.708;9.026;2023-09-30T10:17:07;18.60;99.90
15288;DHT22;7745;48.708;9.026;2023-09-30T10:19:34;18.60;99.90
15288;DHT22;7745;48.708;9.026;2023-09-30T10:22:20;18.90;99.90
15288;DHT22;7745;48.708;9.026;2023-09-30T10:24:49;18.60;99.90
15288;DHT22;7745;48.708;9.026;2023-09-30T10:27:33;18.50;99.90
15288;DHT22;7745;48.708;9.026;2023-09-30T10:30:09;18.50;99.90
15288;DHT22;7745;48.708;9.026;2023-09-30T10:33:12;18.50;99.90
15288;DHT22;7745;48.708;9.026;2023-09-30T10:35:47;18.50;99.90
15288;DHT22;7745;48.708;9.026;2023-09-30T10:38:36;18.40;99.90
15288;DHT22;7745;48.708;9.026;2023-09-30T10:41:06;18.50;99.90
15288;DHT22;7745;48.708;9.026;2023-09-30T10:43:36;18.50;99.90
15288;DHT22;7745;48.708;9.026;2023-09-30T10:46:05;18.50;99.90
15288;DHT22;7745;48.708;9.026;2023-09-30T10:48:51;18.60;99.90
15288;DHT22;7745;48.708;9.026;2023-09-30T10:51:19;18.60;99.90
15288;DHT22;7745;48.708;9.026;2023-09-30T10:53:48;18.60;99.90
15288;DHT22;7745;48.708;9.026;2023-09-30T10:56:17;18.60;99.90
15288;DHT22;7745;48.708;9.026;2023-09-30T10:58:47;18.50;99.90
15288;DHT22;7745;48.708;9.026;2023-09-30T11:01:47;18.60;99.90
15288;DHT22;7745;48.708;9.026;2023-09-30T11:04:45;18.60;99.90
15288;DHT22;7745;48.708;9.026;2023-09-30T11:07:32;18.60;99.90
15288;DHT22;7745;48.708;9.026;2023-09-30T11:10:01;18.60;99.90
15288;DHT22;7745;48.708;9.026;2023-09-30T11:12:31;18.70;99.90
15288;DHT22;7745;48.708;9.026;2023-09-30T11:15:01;18.70;99.90
15288;DHT22;7745;48.708;9.026;2023-09-30T11:17:29;18.80;99.90
15288;DHT22;7745;48.708;9.026;2023-09-30T11:19:56;18.80;99.90
15288;DHT22;7745;48.708;9.026;2023-09-30T11:22:22;18.90;99.90
15288;DHT22;7745;48.708;9.026;2023-09-30T11:24:49;18.90;99.90
15288;DHT22;7745;48.708;9.026;2023-09-30T11:27:22;18.80;99.90
15288;DHT22;7745;48.708;9.026;2023-09-30T11:29:50;18.90;99.90
15288;DHT22;7745;48.708;9.026;2023-09-30T11:32:24;18.90;99.90
15288;DHT22;7745;48.708;9.026;2023-09-30T11:34:52;18.90;99.90
15288;DHT22;7745;48.708;9.026;2023-09-30T11:37:19;19.00;99.90
15288;DHT22;7745;48.708;9.026;2023-09-30T11:39:47;19.00;99.90
15288;DHT22;7745;48.708;9.026;2023-09-30T11:42:17;19.00;99.90
15288;DHT22;7745;48.708;9.026;2023-09-30T11:44:46;18.70;99.90
15288;DHT22;7745;48.708;9.026;2023-09-30T11:47:14;18.80;99.90
15288;DHT22;7745;48.708;9.026;2023-09-30T11:49:43;18.90;99.90
15288;DHT22;7745;48.708;9.026;2023-09-30T11:52:12;19.00;99.90
15288;DHT22;7745;48.708;9.026;2023-09-30T11:54:40;18.90;99.90
15288;DHT22;7745;48.708;9.026;2023-09-30T11:57:09;19.10;99.90
15288;DHT22;7745;48.708;9.026;2023-09-30T11:59:37;19.10;99.90
15288;DHT22;7745;48.708;9.026;2023-09-30T12:02:06;19.20;99.90
15288;DHT22;7745;48.708;9.026;2023-09-30T12:04:34;19.20;99.90
15288;DHT22;7745;48.708;9.026;2023-09-30T12:07:02;19.40;99.90
15288;DHT22;7745;48.708;9.026;2023-09-30T12:09:29;19.40;99.90
15288;DHT22;7745;48.708;9.026;2023-09-30T12:11:57;19.50;99.90
15288;DHT22;7745;48.708;9.026;2023-09-30T12:14:24;19.40;99.90
15288;DHT22;7745;48.708;9.026;2023-09-30T12:16:51;19.60;99.90
15288;DHT22;7745;48.708;9.026;2023-09-30T12:19:18;19.70;99.90
15288;DHT22;7745;48.708;9.026;2023-09-30T12:21:46;19.90;99.90
15288;DHT22;7745;48.708;9.026;2023-09-30T12:24:15;20.00;99.90
15288;DHT22;7745;48.708;9.026;2023-09-30T12:26:43;20.00;99.90
15288;DHT22;7745;48.708;9.026;2023-09-30T12:29:13;20.00;99.90
15288;DHT22;7745;48.708;9.026;2023-09-30T12:31:42;20.00;99.90
15288;DHT22;7745;48.708;9.026;2023-09-30T12:34:09;20.00;99.90
15288;DHT22;7745;48.708;9.026;2023-09-30T12:36:35;19.80;99.90
15288;DHT22;7745;48.708;9.026;2023-09-30T12:39:02;19.80;99.90
15288;DHT22;7745;48.708;9.026;2023-09-30T12:41:37;19.80;99.90
15288;DHT22;7745;48.708;9.026;2023-09-30T12:44:04;19.80;99.90
15288;DHT22;7745;48.708;9.026;2023-09-30T12:46:31;19.90;99.90
15288;DHT22;7745;48.708;9.026;2023-09-30T12:49:00;19.90;99.90
15288;DHT22;7745;48.708;9.026;2023-09-30T12:51:27;19.90;99.90
15288;DHT22;7745;48.708;9.026;2023-09-30T12:53:54;19.90;99.90
15288;DHT22;7745;48.708;9.026;2023-09-30T12:56:22;19.80;99.90
15288;DHT22;7745;48.708;9.026;2023-09-30T12:58:50;19.70;99.90
15288;DHT22;7745;48.708;9.026;2023-09-30T13:01:17;20.00;99.90
15288;DHT22;7745;48.708;9.026;2023-09-30T13:03:44;20.10;99.90
15288;DHT22;7745;48.708;9.026;2023-09-30T13:06:11;20.20;99.90
15288;DHT22;7745;48.708;9.026;2023-09-30T13:08:39;20.30;99.90
15288;DHT22;7745;48.708;9.026;2023-09-30T13:11:07;20.60;99.90
15288;DHT22;7745;48.708;9.026;2023-09-30T13:13:33;20.70;99.90
15288;DHT22;7745;48.708;9.026;2023-09-30T13:16:02;20.80;99.90
15288;DHT22;7745;48.708;9.026;2023-09-30T13:18:31;20.90;99.90
15288;DHT22;7745;48.708;9.026;2023-09-30T13:20:58;20.80;99.90
15288;DHT22;7745;48.708;9.026;2023-09-30T13:23:24;20.90;99.90
15288;DHT22;7745;48.708;9.026;2023-09-30T13:25:53;20.80;99.90
15288;DHT22;7745;48.708;9.026;2023-09-30T13:28:19;20.70;99.90
15288;DHT22;7745;48.708;9.026;2023-09-30T13:30:46;20.60;99.90
15288;DHT22;7745;48.708;9.026;2023-09-30T13:33:15;20.40;99.90
15288;DHT22;7745;48.708;9.026;2023-09-30T13:35:45;20.10;99.90
15288;DHT22;7745;48.708;9.026;2023-09-30T13:38:12;20.10;99.90
15288;DHT22;7745;48.708;9.026;2023-09-30T13:40:38;20.00;99.90
15288;DHT22;7745;48.708;9.026;2023-09-30T13:43:05;20.00;99.90
15288;DHT22;7745;48.708;9.026;2023-09-30T13:45:32;19.90;99.90
15288;DHT22;7745;48.708;9.026;2023-09-30T13:48:00;19.70;99.90
15288;DHT22;7745;48.708;9.026;2023-09-30T13:50:28;19.80;99.90
15288;DHT22;7745;48.708;9.026;2023-09-30T13:52:54;19.90;99.90
15288;DHT22;7745;48.708;9.026;2023-09-30T13:55:21;19.90;99.90
15288;DHT22;7745;48.708;9.026;2023-09-30T13:57:48;19.80;99.90
15288;DHT22;7745;48.708;9.026;2023-09-30T14:00:15;19.90;99.90
15288;DHT22;7745;48.708;9.026;2023-09-30T14:02:42;20.00;99.90
15288;DHT22;7745;48.708;9.026;2023-09-30T14:05:10;20.10;99.90
15288;DHT22;7745;48.708;9.026;2023-09-30T14:07:38;19.90;99.90
15288;DHT22;7745;48.708;9.026;2023-09-30T14:10:06;19.80;99.90
15288;DHT22;7745;48.708;9.026;2023-09-30T14:12:35;19.90;99.90
15288;DHT22;7745;48.708;9.026;2023-09-30T14:15:03;19.70;99.90
15288;DHT22;7745;48.708;9.026;2023-09-30T14:17:30;19.90;99.90
15288;DHT22;7745;48.708;9.026;2023-09-30T14:19:57;19.90;99.90
15288;DHT22;7745;48.708;9.026;2023-09-30T14:22:24;19.80;99.90
15288;DHT22;7745;48.708;9.026;2023-09-30T14:24:53;20.00;99.90
15288;DHT22;7745;48.708;9.026;2023-09-30T14:27:19;20.00;99.90
15288;DHT22;7745;48.708;9.026;2023-09-30T14:29:47;19.90;99.90
15288;DHT22;7745;48.708;9.026;2023-09-30T14:32:14;20.10;99.90
15288;DHT22;7745;48.708;9.026;2023-09-30T14:34:40;20.20;99.90
15288;DHT22;7745;48.708;9.026;2023-09-30T14:37:07;20.10;99.90
15288;DHT22;7745;48.708;9.026;2023-09-30T14:39:35;20.20;99.90
15288;DHT22;7745;48.708;9.026;2023-09-30T14:42:03;20.30;99.90
15288;DHT22;7745;48.708;9.026;2023-09-30T14:44:30;20.30;99.90
15288;DHT22;7745;48.708;9.026;2023-09-30T14:46:57;20.40;99.90
15288;DHT22;7745;48.708;9.026;2023-09-30T14:49:23;20.10;99.90
15288;DHT22;7745;48.708;9.026;2023-09-30T14:51:50;20.00;99.90
15288;DHT22;7745;48.708;9.026;2023-09-30T14:54:22;20.10;99.90
15288;DHT22;7745;48.708;9.026;2023-09-30T14:56:51;20.20;99.90
15288;DHT22;7745;48.708;9.026;2023-09-30T14:59:22;20.10;99.90
15288;DHT22;7745;48.708;9.026;2023-09-30T15:01:49;20.20;99.90
15288;DHT22;7745;48.708;9.026;2023-09-30T15:04:18;20.00;99.90
15288;DHT22;7745;48.708;9.026;2023-09-30T15:06:46;19.90;99.90
15288;DHT22;7745;48.708;9.026;2023-09-30T15:09:14;19.90;99.90
15288;DHT22;7745;48.708;9.026;2023-09-30T15:11:41;19.90;99.90
15288;DHT22;7745;48.708;9.026;2023-09-30T15:14:10;19.80;99.90
15288;DHT22;7745;48.708;9.026;2023-09-30T15:16:39;19.80;99.90
15288;DHT22;7745;48.708;9.026;2023-09-30T15:19:06;19.70;99.90
15288;DHT22;7745;48.708;9.026;2023-09-30T15:21:33;19.60;99.90
15288;DHT22;7745;48.708;9.026;2023-09-30T15:24:01;19.60;99.90
15288;DHT22;7745;48.708;9.026;2023-09-30T15:26:29;19.50;99.90
15288;DHT22;7745;48.708;9.026;2023-09-30T15:28:56;19.50;99.90
15288;DHT22;7745;48.708;9.026;2023-09-30T15:31:26;19.60;99.90
15288;DHT22;7745;48.708;9.026;2023-09-30T15:33:56;19.60;99.90
15288;DHT22;7745;48.708;9.026;2023-09-30T15:36:23;19.70;99.90
15288;DHT22;7745;48.708;9.026;2023-09-30T15:38:51;19.80;99.90
15288;DHT22;7745;48.708;9.026;2023-09-30T15:41:22;19.80;99.90
15288;DHT22;7745;48.708;9.026;2023-09-30T15:43:59;19.80;99.90
15288;DHT22;7745;48.708;9.026;2023-09-30T15:46:26;19.70;99.90
15288;DHT22;7745;48.708;9.026;2023-09-30T15:48:53;19.80;99.90
15288;DHT22;7745;48.708;9.026;2023-09-30T15:51:30;19.80;99.90
15288;DHT22;7745;48.708;9.026;2023-09-30T15:54:01;19.80;99.90
15288;DHT22;7745;48.708;9.026;2023-09-30T15:56:31;19.60;99.90